createdAt,value
2022-12-05T00:00:55.115Z,14.33
2022-12-05T00:03:22.148Z,14.57
2022-12-05T00:05:49.108Z,15.63
2022-12-05T00:08:15.581Z,14.50
2022-12-05T00:10:42.173Z,15.00
2022-12-05T00:13:09.178Z,14.13
2022-12-05T00:15:40.115Z,15.23
2022-12-05T00:18:06.499Z,15.07
2022-12-05T00:20:33.232Z,16.13
2022-12-05T00:23:00.168Z,15.70
2022-12-05T00:25:26.579Z,16.63
2022-12-05T00:27:52.946Z,16.03
2022-12-05T00:30:19.399Z,16.87
2022-12-05T00:32:45.711Z,16.43
2022-12-05T00:35:12.101Z,15.70
2022-12-05T00:37:38.416Z,15.83
2022-12-05T00:40:05.567Z,16.27
2022-12-05T00:42:31.969Z,16.60
2022-12-05T00:44:58.309Z,15.07
2022-12-05T00:47:24.607Z,15.90
2022-12-05T00:49:51.002Z,17.23
2022-12-05T00:52:17.303Z,15.43
2022-12-05T00:54:43.793Z,16.47
2022-12-05T00:57:10.306Z,15.77
2022-12-05T00:59:36.802Z,16.53
2022-12-05T01:02:03.258Z,17.17
2022-12-05T01:04:29.609Z,15.77
2022-12-05T01:06:57.378Z,15.67
2022-12-05T01:09:25.130Z,17.13
2022-12-05T01:11:51.871Z,16.13
2022-12-05T01:14:21.083Z,15.17
2022-12-05T01:16:49.334Z,16.27
2022-12-05T01:19:19.244Z,15.47
2022-12-05T01:21:47.858Z,16.20
2022-12-05T01:24:14.841Z,15.03
2022-12-05T01:26:42.425Z,15.67
2022-12-05T01:29:10.142Z,15.87
2022-12-05T01:31:37.569Z,15.10
2022-12-05T01:34:07.175Z,15.60
2022-12-05T01:36:34.129Z,16.23
2022-12-05T01:39:00.904Z,14.63
2022-12-05T01:41:30.139Z,15.77
2022-12-05T01:44:26.865Z,15.63
2022-12-05T01:46:54.271Z,15.53
2022-12-05T01:49:39.697Z,15.37
2022-12-05T01:52:10.185Z,15.17
2022-12-05T01:54:37.907Z,15.70
2022-12-05T01:57:08.522Z,15.90
2022-12-05T01:59:39.443Z,15.17
2022-12-05T02:02:08.000Z,15.60
2022-12-05T02:04:42.028Z,15.30
2022-12-05T02:07:08.402Z,15.00
2022-12-05T02:09:36.441Z,15.70
2022-12-05T02:12:03.386Z,15.43
2022-12-05T02:14:29.901Z,15.07
2022-12-05T02:17:33.534Z,15.47
2022-12-05T02:20:08.299Z,15.10
2022-12-05T02:23:11.197Z,16.17
2022-12-05T02:26:05.106Z,15.20
2022-12-05T02:28:51.307Z,15.13
2022-12-05T02:31:52.095Z,15.30
2022-12-05T02:34:27.824Z,15.67
2022-12-05T02:37:03.424Z,14.63
2022-12-05T02:39:41.450Z,16.00
2022-12-05T02:42:52.968Z,16.27
2022-12-05T02:45:22.465Z,15.80
2022-12-05T02:47:52.786Z,15.87
2022-12-05T02:50:23.559Z,16.70
2022-12-05T02:52:53.911Z,16.97
2022-12-05T02:55:21.370Z,15.93
2022-12-05T02:57:54.609Z,16.17
2022-12-05T03:00:21.813Z,15.93
2022-12-05T03:02:51.039Z,15.40
2022-12-05T03:05:29.579Z,15.00
2022-12-05T03:07:58.295Z,14.80
2022-12-05T03:10:28.685Z,14.90
2022-12-05T03:13:00.852Z,13.53
2022-12-05T03:15:35.289Z,13.93
2022-12-05T03:18:25.832Z,13.90
2022-12-05T03:21:02.251Z,13.63
2022-12-05T03:23:34.447Z,14.33
2022-12-05T03:26:12.002Z,13.30
2022-12-05T03:29:22.747Z,15.00
2022-12-05T03:32:00.617Z,13.83
2022-12-05T03:34:39.248Z,14.80
2022-12-05T03:37:13.466Z,13.60
2022-12-05T03:39:48.078Z,14.33
2022-12-05T03:42:20.800Z,15.43
2022-12-05T03:44:54.626Z,14.60
2022-12-05T03:47:28.898Z,14.43
2022-12-05T03:50:04.029Z,13.40
2022-12-05T03:52:56.911Z,13.47
2022-12-05T03:55:24.055Z,13.33
2022-12-05T03:57:57.164Z,14.27
2022-12-05T04:00:24.924Z,14.40
2022-12-05T04:02:57.391Z,14.63
2022-12-05T04:05:32.280Z,14.10
2022-12-05T04:08:04.616Z,14.90
2022-12-05T04:10:48.279Z,14.07
2022-12-05T04:13:32.776Z,13.40
2022-12-05T04:16:23.367Z,13.93
2022-12-05T04:18:58.650Z,12.93
2022-12-05T04:21:40.044Z,13.50
2022-12-05T04:24:29.512Z,13.57
2022-12-05T04:27:09.064Z,13.63
2022-12-05T04:29:44.705Z,12.97
2022-12-05T04:32:13.571Z,13.93
2022-12-05T04:34:44.447Z,12.90
2022-12-05T04:37:16.564Z,14.33
2022-12-05T04:40:16.032Z,14.23
2022-12-05T04:42:44.142Z,13.03
2022-12-05T04:45:13.070Z,13.73
2022-12-05T04:47:44.558Z,13.07
2022-12-05T04:50:14.623Z,13.30
2022-12-05T04:52:43.779Z,13.63
2022-12-05T04:55:15.077Z,12.97
2022-12-05T04:58:11.783Z,13.40
2022-12-05T05:00:53.461Z,13.77
2022-12-05T05:03:35.055Z,13.27
2022-12-05T05:06:02.033Z,13.57
2022-12-05T05:08:29.525Z,15.47
2022-12-05T05:11:06.015Z,17.37
2022-12-05T05:13:32.372Z,20.23
2022-12-05T05:15:58.877Z,15.87
2022-12-05T05:18:25.262Z,15.47
2022-12-05T05:20:51.598Z,13.87
2022-12-05T05:23:17.901Z,14.63
2022-12-05T05:25:44.257Z,14.57
2022-12-05T05:28:10.610Z,14.40
2022-12-05T05:30:36.924Z,13.97
2022-12-05T05:33:03.296Z,13.83
2022-12-05T05:35:29.650Z,14.27
2022-12-05T05:37:56.021Z,13.67
2022-12-05T05:40:23.133Z,13.63
2022-12-05T05:42:50.842Z,14.87
2022-12-05T05:45:17.550Z,15.80
2022-12-05T05:47:44.658Z,21.67
2022-12-05T05:50:14.982Z,24.33
2022-12-05T05:52:42.782Z,18.97
2022-12-05T05:55:09.850Z,20.33
2022-12-05T05:57:36.719Z,16.53
2022-12-05T06:00:07.210Z,16.43
2022-12-05T06:02:35.494Z,15.33
2022-12-05T06:05:02.111Z,16.63
2022-12-05T06:07:29.130Z,14.93
2022-12-05T06:09:56.042Z,14.00
2022-12-05T06:12:22.792Z,12.53
2022-12-05T06:14:50.721Z,12.90
2022-12-05T06:17:17.669Z,13.30
2022-12-05T06:19:44.046Z,14.47
2022-12-05T06:22:10.426Z,12.93
2022-12-05T06:24:36.826Z,14.03
2022-12-05T06:27:03.193Z,13.30
2022-12-05T06:29:33.592Z,13.57
2022-12-05T06:32:00.537Z,12.80
2022-12-05T06:34:27.046Z,13.33
2022-12-05T06:36:53.413Z,13.67
2022-12-05T06:39:19.826Z,13.10
2022-12-05T06:41:48.121Z,12.67
2022-12-05T06:44:14.486Z,12.90
2022-12-05T06:46:40.851Z,13.53
2022-12-05T06:49:07.240Z,12.10
2022-12-05T06:51:33.580Z,13.30
2022-12-05T06:54:00.070Z,13.43
2022-12-05T06:56:26.605Z,12.13
2022-12-05T06:58:53.422Z,13.03
2022-12-05T07:01:41.662Z,13.43
2022-12-05T07:04:10.831Z,12.47
2022-12-05T07:06:37.893Z,12.83
2022-12-05T07:09:05.161Z,12.47
2022-12-05T07:11:31.570Z,11.57
2022-12-05T07:13:58.064Z,13.37
2022-12-05T07:16:24.726Z,13.87
2022-12-05T07:18:51.431Z,14.70
2022-12-05T07:21:18.619Z,13.27
2022-12-05T07:23:46.340Z,13.23
2022-12-05T07:26:15.647Z,13.33
2022-12-05T07:28:42.429Z,12.97
2022-12-05T07:31:11.494Z,11.57
2022-12-05T07:33:38.338Z,12.37
2022-12-05T07:36:07.725Z,12.30
2022-12-05T07:38:34.155Z,10.63
2022-12-05T07:41:08.960Z,10.33
2022-12-05T07:43:38.146Z,11.23
2022-12-05T07:46:06.415Z,12.17
2022-12-05T07:48:33.116Z,11.83
2022-12-05T07:51:04.399Z,11.90
2022-12-05T07:53:32.333Z,13.40
2022-12-05T07:56:00.658Z,13.57
2022-12-05T07:58:28.714Z,13.03
2022-12-05T08:00:55.806Z,12.33
2022-12-05T08:03:22.297Z,12.87
2022-12-05T08:05:49.181Z,12.87
2022-12-05T08:08:15.782Z,13.03
2022-12-05T08:10:42.171Z,13.77
2022-12-05T08:13:08.656Z,12.00
2022-12-05T08:15:36.633Z,12.37
2022-12-05T08:18:03.511Z,11.90
2022-12-05T08:20:30.622Z,11.67
2022-12-05T08:22:57.273Z,12.30
2022-12-05T08:25:23.695Z,11.53
2022-12-05T08:27:50.249Z,13.00
2022-12-05T08:30:16.705Z,11.87
2022-12-05T08:32:43.069Z,11.27
2022-12-05T08:35:10.244Z,11.43
2022-12-05T08:37:36.582Z,12.53
2022-12-05T08:40:03.732Z,12.17
2022-12-05T08:42:30.153Z,11.83
2022-12-05T08:44:56.722Z,10.87
2022-12-05T08:47:23.324Z,12.37
2022-12-05T08:49:49.742Z,11.73
2022-12-05T08:52:16.132Z,12.20
2022-12-05T08:54:42.616Z,11.57
2022-12-05T08:57:08.986Z,12.17
2022-12-05T08:59:35.415Z,12.67
2022-12-05T09:02:01.900Z,12.17
2022-12-05T09:04:28.897Z,13.37
2022-12-05T09:06:55.249Z,13.70
2022-12-05T09:09:21.643Z,13.50
2022-12-05T09:11:50.898Z,14.77
2022-12-05T09:14:17.761Z,13.87
2022-12-05T09:16:46.145Z,16.03
2022-12-05T09:19:16.206Z,14.20
2022-12-05T09:21:43.446Z,14.23
2022-12-05T09:24:14.206Z,14.40
2022-12-05T09:26:41.444Z,13.77
2022-12-05T09:29:14.191Z,14.40
2022-12-05T09:31:45.659Z,14.73
2022-12-05T09:34:14.056Z,14.40
2022-12-05T09:36:41.182Z,14.00
2022-12-05T09:39:08.341Z,14.37
2022-12-05T09:42:05.908Z,14.50
2022-12-05T09:44:54.667Z,14.60
2022-12-05T09:47:37.218Z,14.27
2022-12-05T09:50:19.210Z,14.07
2022-12-05T09:53:15.541Z,13.57
2022-12-05T09:55:45.028Z,13.47
2022-12-05T09:58:30.141Z,14.57
2022-12-05T10:01:04.435Z,14.60
2022-12-05T10:03:43.174Z,14.97
2022-12-05T10:06:23.394Z,15.33
2022-12-05T10:09:31.750Z,14.90
2022-12-05T10:12:32.689Z,15.27
2022-12-05T10:15:30.570Z,14.73
2022-12-05T10:18:03.047Z,14.97
2022-12-05T10:20:36.507Z,14.70
2022-12-05T10:23:18.627Z,15.47
2022-12-05T10:25:59.012Z,15.33
2022-12-05T10:28:40.725Z,14.30
2022-12-05T10:31:12.358Z,14.40
2022-12-05T10:33:44.719Z,14.53
2022-12-05T10:36:16.461Z,15.10
2022-12-05T10:38:44.909Z,15.67
2022-12-05T10:41:15.051Z,15.77
2022-12-05T10:43:44.383Z,13.73
2022-12-05T10:46:16.781Z,15.30
2022-12-05T10:48:43.877Z,15.57
2022-12-05T10:51:15.568Z,15.53
2022-12-05T10:53:43.761Z,16.33
2022-12-05T10:56:36.263Z,14.73
2022-12-05T10:59:04.294Z,15.27
2022-12-05T11:01:31.312Z,16.67
2022-12-05T11:04:01.953Z,16.73
2022-12-05T11:06:31.628Z,18.17
2022-12-05T11:09:33.815Z,18.13
2022-12-05T11:12:36.244Z,18.53
2022-12-05T11:15:19.294Z,18.57
2022-12-05T11:17:47.348Z,17.90
2022-12-05T11:20:19.764Z,17.57
2022-12-05T11:22:52.102Z,18.13
2022-12-05T11:25:33.112Z,18.60
2022-12-05T11:28:20.666Z,19.70
2022-12-05T11:30:56.080Z,19.27
2022-12-05T11:33:24.477Z,19.50
2022-12-05T11:35:54.023Z,20.33
2022-12-05T11:38:26.003Z,19.97
2022-12-05T11:40:54.948Z,20.53
2022-12-05T11:43:24.329Z,19.70
2022-12-05T11:46:27.012Z,20.00
2022-12-05T11:49:31.074Z,19.13
2022-12-05T11:52:19.943Z,21.07
2022-12-05T11:55:24.643Z,21.40
2022-12-05T11:58:21.423Z,22.17
2022-12-05T12:01:01.678Z,20.73
2022-12-05T12:03:59.178Z,20.07
2022-12-05T12:06:46.711Z,20.37
2022-12-05T12:09:31.662Z,21.87
2022-12-05T12:12:07.584Z,20.83
2022-12-05T12:14:50.965Z,21.07
2022-12-05T12:17:54.897Z,20.73
2022-12-05T12:21:08.338Z,21.50
2022-12-05T12:23:56.482Z,21.40
2022-12-05T12:27:21.563Z,21.27
2022-12-05T12:30:03.338Z,21.97
2022-12-05T12:32:43.656Z,21.50
2022-12-05T12:35:27.111Z,21.23
2022-12-05T12:38:13.157Z,19.60
2022-12-05T12:41:17.812Z,19.50
2022-12-05T12:44:06.446Z,19.90
2022-12-05T12:46:47.824Z,20.40
2022-12-05T12:49:55.454Z,19.03
2022-12-05T12:52:23.944Z,19.13
2022-12-05T12:55:05.544Z,18.30
2022-12-05T12:57:53.642Z,18.27
2022-12-05T13:00:31.315Z,17.80
2022-12-05T13:03:15.548Z,16.40
2022-12-05T13:05:52.151Z,17.23
2022-12-05T13:09:05.708Z,14.60
2022-12-05T13:11:37.367Z,13.23
2022-12-05T13:14:09.100Z,14.73
2022-12-05T13:16:45.581Z,13.47
2022-12-05T13:19:37.820Z,14.10
2022-12-05T13:22:05.827Z,13.23
2022-12-05T13:24:32.420Z,12.07
2022-12-05T13:27:01.690Z,12.07
2022-12-05T13:29:35.249Z,11.53
2022-12-05T13:32:03.966Z,11.03
2022-12-05T13:34:48.107Z,12.30
2022-12-05T13:37:38.770Z,12.47
2022-12-05T13:40:25.894Z,13.17
2022-12-05T13:43:02.970Z,12.43
2022-12-05T13:45:30.361Z,13.43
2022-12-05T13:47:59.718Z,13.63
2022-12-05T13:50:36.506Z,13.30
2022-12-05T13:53:22.490Z,13.53
2022-12-05T13:56:22.272Z,13.40
2022-12-05T13:58:58.834Z,13.57
2022-12-05T14:01:25.919Z,13.63
2022-12-05T14:03:52.684Z,14.83
2022-12-05T14:06:41.551Z,15.10
2022-12-05T14:09:16.965Z,14.67
2022-12-05T14:12:12.973Z,14.37
2022-12-05T14:15:03.989Z,13.17
2022-12-05T14:17:36.361Z,13.17
2022-12-05T14:20:24.399Z,13.37
2022-12-05T14:23:00.955Z,12.27
2022-12-05T14:25:58.131Z,13.57
2022-12-05T14:28:40.940Z,13.30
2022-12-05T14:31:22.315Z,12.90
2022-12-05T14:34:27.411Z,11.43
2022-12-05T14:37:15.235Z,11.43
2022-12-05T14:39:53.141Z,11.70
2022-12-05T14:42:32.923Z,11.60
2022-12-05T14:45:01.744Z,12.70
2022-12-05T14:47:34.334Z,12.40
2022-12-05T14:50:39.670Z,12.67
2022-12-05T14:53:15.442Z,11.53
2022-12-05T14:55:45.870Z,11.57
2022-12-05T14:58:20.129Z,12.07
2022-12-05T15:00:56.575Z,11.73
2022-12-05T15:03:33.405Z,12.07
2022-12-05T15:06:04.132Z,12.17
2022-12-05T15:08:37.591Z,11.30
2022-12-05T15:11:04.278Z,12.47
2022-12-05T15:13:31.566Z,12.10
2022-12-05T15:16:06.118Z,12.13
2022-12-05T15:18:42.495Z,12.63
2022-12-05T15:21:17.810Z,12.23
2022-12-05T15:23:45.696Z,11.90
2022-12-05T15:29:28.683Z,12.70
2022-12-05T15:31:59.500Z,13.10
2022-12-05T15:34:43.592Z,12.93
2022-12-05T15:37:37.356Z,12.77
2022-12-05T15:40:14.133Z,12.90
2022-12-05T15:42:40.730Z,14.40
2022-12-05T15:45:13.437Z,14.23
2022-12-05T15:47:45.371Z,15.90
2022-12-05T15:50:19.853Z,16.20
2022-12-05T15:52:53.766Z,17.47
2022-12-05T15:55:46.851Z,17.87
2022-12-05T15:58:29.333Z,18.20
2022-12-05T16:01:05.079Z,16.83
2022-12-05T16:03:49.426Z,16.43
2022-12-05T16:06:30.964Z,15.43
2022-12-05T16:08:59.494Z,15.23
2022-12-05T16:11:26.579Z,15.17
2022-12-05T16:14:05.164Z,14.03
2022-12-05T16:16:34.561Z,13.77
2022-12-05T16:19:12.080Z,14.13
2022-12-05T16:21:46.635Z,13.70
2022-12-05T16:24:28.839Z,15.43
2022-12-05T16:27:14.444Z,12.77
2022-12-05T16:29:41.388Z,13.77
2022-12-05T16:32:21.730Z,12.87
2022-12-05T16:34:48.420Z,13.07
2022-12-05T16:37:33.007Z,12.83
2022-12-05T16:39:59.769Z,11.20
2022-12-05T16:42:28.569Z,12.17
2022-12-05T16:45:01.779Z,11.90
2022-12-05T16:47:40.553Z,12.03
2022-12-05T16:50:30.272Z,10.90
2022-12-05T16:53:10.309Z,11.40
2022-12-05T16:55:37.777Z,12.07
2022-12-05T16:58:05.218Z,11.80
2022-12-05T17:00:33.113Z,13.20
2022-12-05T17:03:25.687Z,12.07
2022-12-05T17:05:46.142Z,11.33
2022-12-05T17:08:12.526Z,12.30
2022-12-05T17:10:39.600Z,11.97
2022-12-05T17:13:06.295Z,12.70
2022-12-05T17:15:33.179Z,12.63
2022-12-05T17:18:00.567Z,11.67
2022-12-05T17:20:26.956Z,12.60
2022-12-05T17:22:53.472Z,12.03
2022-12-05T17:25:34.855Z,12.00
2022-12-05T17:28:01.602Z,11.30
2022-12-05T17:30:28.082Z,13.20
2022-12-05T17:32:54.461Z,13.37
2022-12-05T17:35:22.313Z,12.60
2022-12-05T17:37:49.355Z,12.70
2022-12-05T17:40:16.305Z,12.37
2022-12-05T17:42:43.299Z,10.90
2022-12-05T17:45:13.312Z,10.90
2022-12-05T17:47:40.506Z,11.43
2022-12-05T17:50:07.930Z,11.00
2022-12-05T17:52:34.306Z,10.97
2022-12-05T17:55:01.007Z,10.93
2022-12-05T17:57:27.535Z,11.30
2022-12-05T17:59:53.917Z,11.03
2022-12-05T18:02:20.291Z,11.47
2022-12-05T18:04:46.720Z,11.83
2022-12-05T18:07:13.089Z,11.50
2022-12-05T18:09:39.403Z,12.37
2022-12-05T18:12:05.968Z,11.17
2022-12-05T18:14:35.923Z,11.30
2022-12-05T18:17:03.862Z,11.23
2022-12-05T18:19:30.425Z,10.37
2022-12-05T18:21:56.798Z,10.17
2022-12-05T18:24:23.259Z,10.27
2022-12-05T18:26:49.631Z,10.67
2022-12-05T18:29:16.086Z,10.10
2022-12-05T18:31:43.201Z,11.13
2022-12-05T18:34:09.770Z,10.77
2022-12-05T18:36:36.173Z,10.20
2022-12-05T18:39:02.734Z,10.53
2022-12-05T18:41:29.060Z,10.63
2022-12-05T18:43:55.361Z,10.70
2022-12-05T18:46:21.926Z,10.63
2022-12-05T18:48:48.916Z,10.47
2022-12-05T18:51:21.238Z,10.60
2022-12-05T18:53:52.506Z,10.10
2022-12-05T18:56:23.409Z,11.53
2022-12-05T18:58:59.327Z,9.90
2022-12-05T19:01:27.832Z,10.67
2022-12-05T19:03:56.978Z,10.30
2022-12-05T19:06:26.007Z,9.63
2022-12-05T19:08:57.669Z,9.90
2022-12-05T19:11:26.237Z,10.00
2022-12-05T19:14:01.759Z,10.13
2022-12-05T19:16:30.575Z,9.50
2022-12-05T19:18:59.734Z,9.03
2022-12-05T19:21:28.137Z,9.53
2022-12-05T19:23:55.755Z,9.73
2022-12-05T19:26:22.806Z,8.93
2022-12-05T19:28:49.297Z,9.83
2022-12-05T19:31:21.337Z,9.20
2022-12-05T19:33:54.053Z,9.17
2022-12-05T19:36:30.135Z,8.93
2022-12-05T19:38:56.714Z,9.03
2022-12-05T19:41:26.792Z,8.63
2022-12-05T19:43:53.606Z,8.70
2022-12-05T19:46:21.952Z,9.47
2022-12-05T19:48:48.444Z,9.13
2022-12-05T19:51:15.264Z,9.07
2022-12-05T19:53:42.999Z,8.80
2022-12-05T19:56:17.094Z,8.77
2022-12-05T19:58:44.204Z,8.87
2022-12-05T20:01:14.594Z,8.43
2022-12-05T20:03:42.589Z,8.87
2022-12-05T20:06:09.847Z,8.40
2022-12-05T20:08:37.075Z,8.07
2022-12-05T20:11:27.116Z,8.07
2022-12-05T20:13:55.445Z,8.47
2022-12-05T20:16:23.418Z,8.10
2022-12-05T20:18:50.349Z,8.43
2022-12-05T20:21:19.517Z,7.97
2022-12-05T20:23:46.284Z,7.73
2022-12-05T20:26:24.469Z,7.97
2022-12-05T20:28:51.233Z,8.23
2022-12-05T20:31:20.480Z,9.07
2022-12-05T20:33:49.718Z,8.43
2022-12-05T20:36:18.533Z,8.20
2022-12-05T20:38:45.723Z,7.70
2022-12-05T20:41:17.675Z,8.60
2022-12-05T20:43:45.654Z,8.40
2022-12-05T20:46:17.147Z,7.40
2022-12-05T20:48:44.835Z,8.00
2022-12-05T20:51:14.043Z,8.23
2022-12-05T20:53:41.668Z,7.87
2022-12-05T20:56:14.092Z,8.13
2022-12-05T20:58:43.269Z,8.57
2022-12-05T21:01:11.582Z,7.57
2022-12-05T21:03:44.003Z,7.83
2022-12-05T21:06:19.078Z,7.73
2022-12-05T21:08:45.717Z,7.87
2022-12-05T21:11:12.584Z,7.87
2022-12-05T21:13:39.563Z,8.30
2022-12-05T21:16:11.904Z,8.17
2022-12-05T21:18:39.811Z,7.27
2022-12-05T21:21:09.208Z,7.73
2022-12-05T21:23:35.611Z,7.57
2022-12-05T21:26:06.890Z,7.50
2022-12-05T21:28:34.620Z,7.97
2022-12-05T21:31:16.742Z,7.20
2022-12-05T21:33:47.509Z,8.53
2022-12-05T21:36:14.482Z,8.10
2022-12-05T21:38:40.909Z,8.10
2022-12-05T21:41:07.559Z,9.23
2022-12-05T21:43:35.321Z,9.40
2022-12-05T21:46:02.003Z,9.67
2022-12-05T21:48:28.429Z,9.47
2022-12-05T21:50:54.990Z,9.00
2022-12-05T21:53:22.130Z,8.33
2022-12-05T21:55:48.491Z,9.27
2022-12-05T21:58:14.871Z,9.43
2022-12-05T22:00:42.163Z,9.40
2022-12-05T22:03:13.881Z,8.83
2022-12-05T22:05:40.819Z,9.07
2022-12-05T22:08:07.346Z,8.77
2022-12-05T22:10:37.033Z,8.90
2022-12-05T22:13:03.995Z,8.97
2022-12-05T22:15:30.743Z,8.60
2022-12-05T22:17:57.531Z,9.97
2022-12-05T22:20:24.027Z,9.67
2022-12-05T22:22:50.315Z,10.33
2022-12-05T22:25:16.772Z,8.90
2022-12-05T22:27:43.118Z,8.90
2022-12-05T22:30:09.773Z,9.37
2022-12-05T22:32:36.163Z,9.37
2022-12-05T22:35:04.262Z,9.67
2022-12-05T22:37:30.827Z,10.20
2022-12-05T22:39:57.603Z,9.73
2022-12-05T22:42:26.712Z,9.80
2022-12-05T22:44:53.006Z,9.50
2022-12-05T22:47:19.386Z,8.20
2022-12-05T22:49:45.742Z,9.07
2022-12-05T22:52:12.134Z,9.17
2022-12-05T22:54:39.727Z,8.90
2022-12-05T22:57:06.110Z,9.47
2022-12-05T22:59:32.991Z,9.57
2022-12-05T23:01:59.659Z,10.00
2022-12-05T23:04:26.092Z,10.53
2022-12-05T23:06:52.530Z,11.13
2022-12-05T23:09:19.061Z,11.10
2022-12-05T23:11:45.364Z,11.33
2022-12-05T23:14:11.662Z,12.00
2022-12-05T23:16:39.708Z,11.13
2022-12-05T23:19:06.190Z,11.53
2022-12-05T23:21:38.473Z,12.33
2022-12-05T23:24:10.758Z,12.27
2022-12-05T23:26:43.134Z,12.20
2022-12-05T23:29:12.244Z,13.00
2022-12-05T23:31:38.960Z,12.23
2022-12-05T23:34:05.603Z,11.70
2022-12-05T23:36:33.902Z,12.57
2022-12-05T23:39:00.872Z,11.77
2022-12-05T23:41:27.620Z,11.53
2022-12-05T23:43:54.245Z,12.73
2022-12-05T23:46:23.579Z,12.37
2022-12-05T23:48:50.794Z,12.30
2022-12-05T23:51:22.877Z,12.27
2022-12-05T23:53:53.874Z,12.77
2022-12-05T23:56:24.511Z,11.87
2022-12-05T23:58:50.922Z,12.33
